Time;durP1;ratioP1;P1;durP2;ratioP2;P2;SDS_P1;SDS_P2;PMS_P1;PMS_P2;Temp;Humidity;BMP_temperature;BMP_pressure;BME280_temperature;BME280_humidity;BME280_pressure;Samples;Min_cycle;Max_cycle;Signal;HPM_P1;HPM_P2
2023/10/04 00:02:09;;;;;;;2.57;1.63;;;20.20;64.00;;;;;;5005342;28;20468;-51
2023/10/04 00:04:38;;;;;;;4.07;2.10;;;20.20;64.20;;;;;;5009453;28;20552;-51
2023/10/04 00:07:09;;;;;;;3.30;1.50;;;20.20;64.60;;;;;;5002569;28;20793;-50
2023/10/04 00:09:37;;;;;;;3.10;1.53;;;20.20;64.30;;;;;;5009288;28;20476;-50
2023/10/04 00:12:08;;;;;;;2.50;1.57;;;20.20;64.30;;;;;;5007966;28;20532;-50
2023/10/04 00:14:37;;;;;;;3.20;1.20;;;20.20;64.20;;;;;;5010190;28;20816;-50
2023/10/04 00:17:05;;;;;;;1.73;1.27;;;20.10;64.10;;;;;;5007227;28;20837;-50
2023/10/04 00:19:34;;;;;;;2.17;1.50;;;20.10;63.90;;;;;;5010914;28;20458;-50
2023/10/04 00:22:02;;;;;;;2.77;2.07;;;20.10;64.10;;;;;;5003722;28;20451;-51
2023/10/04 00:24:33;;;;;;;2.23;1.50;;;20.10;63.90;;;;;;5009925;28;20468;-51
2023/10/04 00:27:01;;;;;;;2.80;1.53;;;20.10;63.90;;;;;;5007410;28;20528;-51
2023/10/04 00:29:29;;;;;;;2.83;1.33;;;20.10;64.30;;;;;;5010569;28;20480;-50
2023/10/04 00:31:57;;;;;;;2.53;1.23;;;20.10;64.10;;;;;;5005711;28;20443;-51
2023/10/04 00:34:25;;;;;;;3.30;1.57;;;20.10;64.00;;;;;;5008159;28;20500;-51
2023/10/04 00:36:55;;;;;;;3.17;1.60;;;20.10;64.40;;;;;;5006039;28;20441;-51
2023/10/04 00:39:25;;;;;;;2.43;1.30;;;20.10;64.70;;;;;;4992334;28;20477;-51
2023/10/04 00:41:55;;;;;;;2.00;1.20;;;20.10;63.90;;;;;;5006539;28;20498;-51
2023/10/04 00:44:24;;;;;;;1.93;1.23;;;20.10;63.90;;;;;;5004503;28;21061;-52
2023/10/04 00:46:52;;;;;;;1.50;1.07;;;20.10;64.40;;;;;;5002668;28;20949;-50
2023/10/04 00:49:21;;;;;;;3.10;1.80;;;20.10;64.60;;;;;;5009690;28;20468;-52
2023/10/04 00:51:49;;;;;;;2.50;1.17;;;20.10;64.80;;;;;;5002083;28;20457;-49
2023/10/04 00:54:17;;;;;;;2.43;1.70;;;20.00;63.80;;;;;;5010246;28;20773;-49
2023/10/04 00:56:46;;;;;;;1.80;1.43;;;20.00;64.20;;;;;;5009228;28;20833;-49
2023/10/04 00:59:17;;;;;;;2.07;1.40;;;20.00;64.30;;;;;;5004805;28;20468;-51
2023/10/04 01:01:46;;;;;;;2.70;1.50;;;20.10;64.50;;;;;;5007261;28;20461;-50
2023/10/04 01:04:15;;;;;;;3.53;1.70;;;20.00;64.60;;;;;;5006613;28;20488;-51
2023/10/04 01:06:45;;;;;;;2.13;1.10;;;20.00;64.40;;;;;;5001649;28;20502;-51
2023/10/04 01:09:14;;;;;;;3.10;1.27;;;20.00;64.20;;;;;;5000689;28;20465;-50
2023/10/04 01:11:48;;;;;;;3.07;1.20;;;20.00;64.20;;;;;;5010461;28;20480;-50
2023/10/04 01:14:23;;;;;;;1.97;1.10;;;20.00;64.50;;;;;;4999333;28;21086;-50
2023/10/04 01:16:52;;;;;;;2.30;1.23;;;20.00;64.50;;;;;;4991677;28;20437;-50
2023/10/04 01:19:22;;;;;;;3.93;1.57;;;20.00;64.60;;;;;;5006931;28;20473;-51
2023/10/04 01:21:50;;;;;;;2.53;1.37;;;20.00;64.30;;;;;;4998401;28;20891;-56
2023/10/04 01:24:20;;;;;;;4.70;1.50;;;20.00;64.40;;;;;;5002926;28;21484;-50
2023/10/04 01:26:48;;;;;;;2.70;1.40;;;20.00;64.40;;;;;;4996093;28;20443;-49
2023/10/04 01:29:18;;;;;;;1.57;1.10;;;19.90;64.70;;;;;;4991611;28;20862;-52
2023/10/04 01:31:47;;;;;;;2.37;1.50;;;20.00;64.50;;;;;;5014936;28;20973;-50
2023/10/04 01:34:15;;;;;;;2.83;2.03;;;19.90;64.50;;;;;;5006005;28;20477;-51
2023/10/04 01:36:43;;;;;;;3.17;1.73;;;19.90;64.50;;;;;;5001330;28;20459;-52
2023/10/04 01:39:18;;;;;;;2.37;1.30;;;19.90;64.70;;;;;;5005999;28;20472;-51
2023/10/04 01:41:49;;;;;;;2.07;1.33;;;19.90;64.50;;;;;;5004202;28;20456;-51
2023/10/04 01:44:17;;;;;;;1.97;1.43;;;19.90;64.90;;;;;;5006173;28;20469;-50
2023/10/04 01:46:45;;;;;;;2.10;1.27;;;19.90;64.70;;;;;;5004102;28;20456;-51
2023/10/04 01:49:13;;;;;;;2.50;1.33;;;19.90;64.70;;;;;;4995295;28;20480;-52
2023/10/04 01:51:42;;;;;;;2.30;1.40;;;19.90;64.70;;;;;;5007847;28;21945;-50
2023/10/04 01:54:13;;;;;;;2.20;1.33;;;19.90;64.80;;;;;;5005943;28;20483;-51
2023/10/04 01:56:41;;;;;;;2.80;1.07;;;19.90;64.40;;;;;;4997204;28;20450;-49
2023/10/04 01:59:13;;;;;;;3.10;1.20;;;19.90;64.60;;;;;;5007540;28;20472;-52
2023/10/04 02:01:41;;;;;;;2.00;1.40;;;19.80;64.60;;;;;;5009845;28;20818;-51
2023/10/04 02:04:10;;;;;;;3.40;1.50;;;19.80;64.60;;;;;;5005497;28;20870;-51
2023/10/04 02:06:38;;;;;;;1.43;1.13;;;19.80;64.80;;;;;;5007585;28;20915;-52
2023/10/04 02:09:11;;;;;;;2.60;1.43;;;19.80;64.80;;;;;;5005041;28;20504;-49
2023/10/04 02:11:41;;;;;;;2.90;1.40;;;19.80;64.80;;;;;;5005787;28;20504;-50
2023/10/04 02:14:11;;;;;;;2.07;1.37;;;19.80;64.80;;;;;;4999594;28;20782;-49
2023/10/04 02:16:39;;;;;;;4.03;1.53;;;19.80;64.80;;;;;;4987194;28;20531;-50
2023/10/04 02:19:07;;;;;;;2.83;1.40;;;19.80;64.60;;;;;;5005941;28;20883;-50
2023/10/04 02:21:36;;;;;;;2.50;1.10;;;19.80;64.80;;;;;;5003456;28;20452;-50
2023/10/04 02:24:08;;;;;;;1.93;1.20;;;19.80;65.00;;;;;;5017214;28;20476;-50
2023/10/04 02:26:37;;;;;;;2.50;1.30;;;19.80;64.90;;;;;;5008190;28;20449;-49
2023/10/04 02:29:05;;;;;;;3.10;1.47;;;19.80;64.90;;;;;;4989850;28;20469;-50
2023/10/04 02:31:36;;;;;;;2.63;1.27;;;19.80;64.80;;;;;;5012397;28;20449;-53
2023/10/04 02:34:05;;;;;;;3.00;1.20;;;19.80;65.00;;;;;;4988998;28;20487;-49
2023/10/04 02:36:37;;;;;;;2.53;1.23;;;19.80;64.90;;;;;;4989488;28;20460;-51
2023/10/04 02:39:10;;;;;;;2.37;1.17;;;19.80;64.80;;;;;;5006229;28;20480;-51
2023/10/04 02:41:41;;;;;;;2.10;1.17;;;19.80;65.00;;;;;;4992343;28;20456;-51
2023/10/04 02:44:09;;;;;;;2.00;1.23;;;19.80;64.70;;;;;;4989021;28;20515;-50
2023/10/04 02:46:44;;;;;;;4.67;1.77;;;19.70;65.00;;;;;;5007120;28;20448;-51
2023/10/04 02:49:13;;;;;;;1.83;1.40;;;19.70;66.10;;;;;;4989268;28;20475;-51
2023/10/04 02:51:44;;;;;;;2.33;1.30;;;19.80;65.00;;;;;;5004745;28;20452;-49
2023/10/04 02:54:16;;;;;;;1.50;1.30;;;19.70;64.70;;;;;;4990854;28;20831;-51
2023/10/04 02:56:48;;;;;;;2.43;1.40;;;19.70;65.90;;;;;;4995215;28;20436;-49
2023/10/04 02:59:18;;;;;;;3.30;1.63;;;19.70;64.70;;;;;;4986182;28;20844;-52
2023/10/04 03:01:49;;;;;;;3.20;1.40;;;19.70;65.00;;;;;;5003975;28;20437;-51
2023/10/04 03:04:19;;;;;;;2.70;1.30;;;19.70;64.70;;;;;;4985498;28;20469;-51
2023/10/04 03:06:48;;;;;;;1.87;1.20;;;19.70;65.00;;;;;;4988593;28;20471;-51
2023/10/04 03:09:16;;;;;;;2.27;0.90;;;19.70;64.70;;;;;;5006723;28;20620;-49
2023/10/04 03:11:45;;;;;;;2.67;1.37;;;19.70;64.80;;;;;;4992804;28;20441;-49
2023/10/04 03:14:15;;;;;;;2.60;1.47;;;19.70;64.80;;;;;;4991696;28;20488;-49
2023/10/04 03:16:44;;;;;;;2.40;1.30;;;19.70;64.90;;;;;;4991585;28;20502;-51
2023/10/04 03:19:16;;;;;;;5.73;1.50;;;19.70;65.00;;;;;;4985188;28;20742;-49
2023/10/04 03:21:46;;;;;;;4.00;1.50;;;19.70;65.00;;;;;;5003469;28;20445;-49
2023/10/04 03:24:18;;;;;;;2.00;1.07;;;19.70;66.00;;;;;;4991077;28;20480;-49
2023/10/04 03:26:50;;;;;;;2.50;1.50;;;19.60;65.00;;;;;;4991210;28;20440;-50
2023/10/04 03:29:19;;;;;;;1.93;1.10;;;19.60;65.00;;;;;;4997312;28;21067;-51
2023/10/04 03:31:49;;;;;;;2.20;1.03;;;19.60;64.70;;;;;;4991634;28;20826;-49
2023/10/04 03:34:22;;;;;;;2.47;1.13;;;19.60;64.80;;;;;;4993418;28;20476;-49
2023/10/04 03:36:51;;;;;;;2.20;1.00;;;19.60;64.90;;;;;;4991645;28;20812;-51
2023/10/04 03:39:26;;;;;;;5.23;1.90;;;19.60;64.90;;;;;;5010785;28;20643;-48
2023/10/04 03:41:57;;;;;;;3.50;1.43;;;19.60;64.80;;;;;;4994071;28;20440;-50
2023/10/04 03:44:26;;;;;;;4.40;1.87;;;19.60;65.00;;;;;;4990886;28;20484;-50
2023/10/04 03:46:58;;;;;;;4.17;1.33;;;19.60;65.00;;;;;;4989699;28;20470;-50
2023/10/04 03:49:28;;;;;;;3.50;1.40;;;19.60;65.00;;;;;;5006595;28;20465;-50
2023/10/04 03:51:57;;;;;;;5.43;1.40;;;19.60;65.00;;;;;;5003737;28;20476;-52
2023/10/04 03:54:27;;;;;;;4.60;1.33;;;19.60;65.20;;;;;;4995308;28;20476;-50
2023/10/04 03:56:56;;;;;;;3.80;1.47;;;19.50;64.70;;;;;;5005094;28;20441;-49
2023/10/04 03:59:24;;;;;;;3.30;1.20;;;19.60;64.80;;;;;;5010684;28;21066;-51
2023/10/04 04:01:55;;;;;;;3.33;1.30;;;19.50;64.70;;;;;;4988407;28;20788;-52
2023/10/04 04:04:23;;;;;;;1.83;1.30;;;19.50;64.90;;;;;;5007035;28;20869;-52
2023/10/04 04:06:54;;;;;;;2.10;1.20;;;19.50;64.80;;;;;;5002556;28;20449;-49
2023/10/04 04:09:23;;;;;;;3.87;1.10;;;19.50;64.80;;;;;;4992366;28;20849;-49
2023/10/04 04:11:52;;;;;;;1.73;1.20;;;19.50;64.90;;;;;;5007614;28;20875;-51
2023/10/04 04:14:21;;;;;;;1.73;1.30;;;19.50;64.90;;;;;;4992791;28;20484;-51
2023/10/04 04:16:51;;;;;;;2.77;1.40;;;19.50;65.00;;;;;;5007461;28;20884;-51
2023/10/04 04:19:23;;;;;;;1.90;1.00;;;19.50;64.90;;;;;;5000762;28;20832;-50
2023/10/04 04:21:57;;;;;;;2.90;0.90;;;19.50;64.90;;;;;;4996868;28;20442;-49
2023/10/04 04:24:27;;;;;;;2.17;0.90;;;19.50;65.20;;;;;;4996775;28;20476;-51
2023/10/04 04:26:58;;;;;;;2.23;1.20;;;19.40;66.30;;;;;;5014761;28;20585;-52
2023/10/04 04:29:27;;;;;;;2.50;0.93;;;19.50;64.80;;;;;;4994923;28;20468;-50
2023/10/04 04:31:56;;;;;;;3.17;1.30;;;19.40;64.90;;;;;;4989537;28;20468;-49
2023/10/04 04:34:26;;;;;;;4.10;1.30;;;19.50;65.10;;;;;;4998787;28;20475;-49
2023/10/04 04:36:56;;;;;;;1.63;1.00;;;19.40;64.60;;;;;;4995924;28;20551;-50
2023/10/04 04:39:28;;;;;;;3.40;0.97;;;19.40;64.80;;;;;;5008636;28;20488;-49
2023/10/04 04:41:59;;;;;;;1.63;1.10;;;19.40;64.90;;;;;;4999620;28;20442;-50
2023/10/04 04:44:35;;;;;;;1.63;1.10;;;19.40;65.10;;;;;;5011162;28;20478;-51
2023/10/04 04:47:04;;;;;;;4.27;1.30;;;19.40;64.90;;;;;;5010764;28;20469;-51
2023/10/04 04:49:32;;;;;;;2.33;1.33;;;19.40;64.80;;;;;;4998826;28;20475;-50
2023/10/04 04:52:05;;;;;;;2.63;1.53;;;19.40;64.90;;;;;;4996816;28;20504;-50
2023/10/04 04:54:34;;;;;;;3.30;1.50;;;19.40;64.80;;;;;;4986673;28;20481;-51
2023/10/04 04:57:05;;;;;;;3.90;1.33;;;19.40;64.90;;;;;;5006375;28;20520;-50
2023/10/04 04:59:35;;;;;;;3.47;1.30;;;19.40;64.90;;;;;;4999526;28;20942;-55
2023/10/04 05:02:03;;;;;;;2.00;1.13;;;19.30;64.80;;;;;;5010951;28;20935;-50
2023/10/04 05:04:32;;;;;;;2.40;1.10;;;19.40;65.00;;;;;;5008229;28;20472;-50
2023/10/04 05:07:06;;;;;;;2.93;1.17;;;19.30;66.10;;;;;;4983247;28;20447;-49
2023/10/04 05:09:35;;;;;;;1.87;1.60;;;19.30;65.20;;;;;;5006504;28;20453;-49
2023/10/04 05:12:03;;;;;;;2.50;1.43;;;19.30;65.00;;;;;;5008384;28;20465;-50
2023/10/04 05:14:31;;;;;;;2.40;1.40;;;19.30;64.80;;;;;;5014024;28;20815;-50
2023/10/04 05:16:59;;;;;;;3.13;1.30;;;19.30;64.80;;;;;;5012355;28;20472;-50
2023/10/04 05:19:29;;;;;;;3.03;1.37;;;19.30;64.80;;;;;;5006551;28;20520;-49
2023/10/04 05:21:57;;;;;;;4.40;1.40;;;19.30;65.20;;;;;;5002374;28;20456;-50
2023/10/04 05:24:27;;;;;;;1.90;1.20;;;19.30;64.90;;;;;;5009399;28;20481;-52
2023/10/04 05:26:55;;;;;;;3.17;1.43;;;19.30;64.80;;;;;;4973714;28;20430;-52
2023/10/04 05:29:23;;;;;;;2.50;1.40;;;19.30;64.90;;;;;;5001651;28;20483;-50
2023/10/04 05:31:52;;;;;;;2.10;1.00;;;19.30;65.00;;;;;;5008969;28;20468;-50
2023/10/04 05:34:20;;;;;;;5.20;1.07;;;19.30;65.00;;;;;;5012378;28;20481;-50
2023/10/04 05:36:49;;;;;;;2.17;1.07;;;19.30;65.00;;;;;;5008017;28;20796;-49
2023/10/04 05:39:17;;;;;;;1.67;1.10;;;19.30;65.10;;;;;;5005594;28;20461;-52
2023/10/04 05:41:47;;;;;;;2.40;1.23;;;19.30;65.20;;;;;;5015955;28;20881;-51
2023/10/04 05:44:15;;;;;;;3.57;1.60;;;19.30;65.20;;;;;;5006782;28;20477;-52
2023/10/04 05:46:45;;;;;;;2.67;1.07;;;19.30;65.00;;;;;;5008770;28;20445;-52
2023/10/04 05:49:13;;;;;;;3.20;1.50;;;19.30;65.30;;;;;;5008100;28;20469;-51
2023/10/04 05:51:42;;;;;;;2.07;1.33;;;19.30;65.20;;;;;;4999787;28;20977;-49
2023/10/04 05:54:10;;;;;;;2.17;1.43;;;19.20;65.00;;;;;;5005522;28;20500;-50
2023/10/04 05:56:39;;;;;;;2.07;1.47;;;19.20;65.20;;;;;;5008360;28;20855;-52
2023/10/04 05:59:10;;;;;;;3.47;1.40;;;19.30;65.40;;;;;;5006524;28;20837;-50
2023/10/04 06:01:39;;;;;;;1.83;1.10;;;19.20;64.90;;;;;;5007096;28;20639;-51
2023/10/04 06:04:08;;;;;;;2.23;1.20;;;19.20;65.20;;;;;;5008437;28;20477;-50
2023/10/04 06:06:40;;;;;;;2.50;1.57;;;19.20;65.10;;;;;;5004204;28;20441;-51
2023/10/04 06:09:09;;;;;;;2.40;0.93;;;19.20;65.20;;;;;;5005990;28;20469;-51
2023/10/04 06:11:37;;;;;;;3.13;1.40;;;19.20;65.10;;;;;;5010865;28;20642;-52
2023/10/04 06:14:05;;;;;;;4.83;1.37;;;19.20;65.10;;;;;;5007268;28;20479;-53
2023/10/04 06:16:36;;;;;;;1.80;1.20;;;19.20;65.40;;;;;;5006734;28;20495;-50
2023/10/04 06:19:05;;;;;;;2.30;1.20;;;19.20;65.20;;;;;;5005908;28;20928;-51
2023/10/04 06:21:53;;;;;;;3.37;1.23;;;19.20;65.30;;;;;;5006392;28;20524;-52
2023/10/04 06:24:21;;;;;;;2.53;1.27;;;19.10;65.20;;;;;;5006791;28;20853;-50
2023/10/04 06:26:49;;;;;;;2.23;1.10;;;19.10;65.10;;;;;;5003442;28;20429;-51
2023/10/04 06:29:18;;;;;;;2.87;1.30;;;19.10;65.00;;;;;;5004600;28;20479;-52
2023/10/04 06:31:47;;;;;;;2.63;1.57;;;19.10;65.00;;;;;;5003521;28;20496;-52
2023/10/04 06:34:15;;;;;;;3.30;1.80;;;19.10;65.10;;;;;;5005009;28;21005;-51
2023/10/04 06:36:45;;;;;;;1.90;1.20;;;19.10;65.10;;;;;;5003976;28;20452;-52
2023/10/04 06:39:14;;;;;;;2.73;1.10;;;19.10;65.10;;;;;;5004271;28;20474;-51
2023/10/04 06:41:43;;;;;;;2.50;1.10;;;19.10;64.30;;;;;;5006574;28;20443;-51
2023/10/04 06:44:11;;;;;;;3.70;1.70;;;19.10;65.20;;;;;;4993440;28;21000;-50
2023/10/04 06:46:39;;;;;;;4.90;1.50;;;19.10;65.10;;;;;;5006017;28;20484;-50
2023/10/04 06:49:09;;;;;;;3.50;1.50;;;19.10;65.30;;;;;;5004444;28;21020;-52
2023/10/04 06:51:37;;;;;;;1.77;1.27;;;19.10;65.20;;;;;;5005054;28;20492;-50
2023/10/04 06:54:06;;;;;;;3.17;1.70;;;19.10;65.20;;;;;;5005307;28;20473;-51
2023/10/04 06:56:35;;;;;;;2.90;1.30;;;19.10;65.20;;;;;;5008608;28;20483;-51
2023/10/04 06:59:03;;;;;;;1.93;1.10;;;19.10;65.10;;;;;;5000422;28;20528;-50
2023/10/04 07:01:31;;;;;;;2.50;1.20;;;19.10;65.10;;;;;;5007418;28;20441;-50
2023/10/04 07:03:59;;;;;;;2.37;1.10;;;19.10;65.20;;;;;;5005291;28;20505;-54
2023/10/04 07:06:32;;;;;;;2.30;1.40;;;19.10;65.30;;;;;;5000334;28;20477;-51
2023/10/04 07:09:00;;;;;;;5.13;1.10;;;19.10;65.40;;;;;;5004706;28;20575;-52
2023/10/04 07:11:28;;;;;;;2.57;1.50;;;19.10;65.30;;;;;;5009205;28;20451;-52
2023/10/04 07:13:56;;;;;;;2.23;1.20;;;19.10;65.20;;;;;;5006270;28;20475;-52
2023/10/04 07:16:24;;;;;;;2.93;1.30;;;19.10;65.30;;;;;;5001651;28;20461;-52
2023/10/04 07:18:53;;;;;;;3.00;1.10;;;19.10;65.30;;;;;;5011102;28;20492;-50
2023/10/04 07:21:21;;;;;;;1.53;1.10;;;19.00;65.20;;;;;;4997931;28;20449;-52
2023/10/04 07:23:51;;;;;;;5.37;1.60;;;19.00;65.20;;;;;;5011233;28;20461;-52
2023/10/04 07:26:19;;;;;;;1.67;1.00;;;19.00;65.40;;;;;;5006659;28;20436;-50
2023/10/04 07:28:47;;;;;;;4.70;1.60;;;19.00;65.50;;;;;;5005078;28;20511;-50
2023/10/04 07:31:15;;;;;;;2.30;1.10;;;19.00;65.40;;;;;;5005229;28;20548;-51
2023/10/04 07:33:44;;;;;;;2.87;1.30;;;19.00;65.40;;;;;;4992417;28;20483;-51
2023/10/04 07:36:12;;;;;;;1.90;1.27;;;19.00;65.50;;;;;;5001686;28;20441;-51
2023/10/04 07:38:42;;;;;;;4.90;1.33;;;19.00;65.40;;;;;;5006371;28;20556;-52
2023/10/04 07:41:13;;;;;;;1.30;0.90;;;19.00;65.40;;;;;;5008034;28;20414;-51
2023/10/04 07:43:41;;;;;;;1.70;1.20;;;19.00;65.70;;;;;;5006403;28;20473;-50
2023/10/04 07:46:09;;;;;;;3.13;1.40;;;19.00;65.60;;;;;;5003158;28;20484;-51
2023/10/04 07:48:37;;;;;;;2.77;1.33;;;19.00;65.30;;;;;;5009925;28;20486;-52
2023/10/04 07:51:06;;;;;;;1.83;1.30;;;19.00;65.50;;;;;;5004221;28;20946;-50
2023/10/04 07:53:35;;;;;;;1.50;1.00;;;19.00;65.70;;;;;;5012450;28;20760;-51
2023/10/04 07:56:03;;;;;;;2.83;1.17;;;19.00;65.60;;;;;;5008553;28;20508;-52
2023/10/04 07:58:33;;;;;;;2.63;1.27;;;19.00;65.70;;;;;;5007884;28;20480;-51
2023/10/04 08:01:01;;;;;;;2.07;1.40;;;19.00;65.70;;;;;;5006814;28;20451;-52
2023/10/04 08:03:29;;;;;;;3.43;1.50;;;19.00;65.70;;;;;;5011287;28;20547;-52
2023/10/04 08:05:58;;;;;;;2.00;1.07;;;19.00;65.80;;;;;;5003311;28;21045;-52
2023/10/04 08:08:26;;;;;;;2.50;1.30;;;19.00;65.80;;;;;;5015006;28;20472;-51
2023/10/04 08:10:55;;;;;;;2.53;1.20;;;19.00;65.90;;;;;;5011912;28;20750;-51
2023/10/04 08:13:23;;;;;;;3.27;1.23;;;19.00;65.90;;;;;;5011333;28;20480;-52
2023/10/04 08:15:53;;;;;;;5.27;1.20;;;19.00;65.90;;;;;;5006112;28;20456;-51
2023/10/04 08:18:23;;;;;;;2.37;1.40;;;19.00;65.90;;;;;;5011775;28;20656;-48
2023/10/04 08:20:52;;;;;;;3.23;0.90;;;19.00;65.90;;;;;;4992376;28;20449;-50
2023/10/04 08:23:21;;;;;;;2.50;1.20;;;19.00;65.90;;;;;;5006687;28;20498;-50
2023/10/04 08:25:50;;;;;;;2.60;1.50;;;19.00;65.90;;;;;;5013798;28;20529;-52
2023/10/04 08:28:18;;;;;;;2.90;1.20;;;19.00;66.00;;;;;;5007934;28;21067;-51
2023/10/04 08:30:51;;;;;;;3.20;1.30;;;19.00;65.90;;;;;;5008152;28;20438;-51
2023/10/04 08:33:29;;;;;;;2.07;1.17;;;19.00;65.90;;;;;;5008660;28;20487;-52
2023/10/04 08:35:57;;;;;;;3.10;1.30;;;19.00;66.00;;;;;;5002497;28;20464;-52
2023/10/04 08:38:26;;;;;;;4.20;1.20;;;19.00;65.90;;;;;;4997526;28;20457;-51
2023/10/04 08:40:54;;;;;;;2.53;0.90;;;19.00;65.90;;;;;;5008619;28;20969;-52
2023/10/04 08:43:23;;;;;;;2.23;1.37;;;19.00;66.00;;;;;;5007304;28;20502;-50
2023/10/04 08:45:52;;;;;;;1.80;1.20;;;19.00;66.10;;;;;;5006638;28;20445;-50
2023/10/04 08:48:25;;;;;;;1.60;1.30;;;19.00;66.00;;;;;;5010940;28;20473;-50
2023/10/04 08:50:56;;;;;;;5.90;2.40;;;19.00;65.90;;;;;;5009368;28;20827;-49
2023/10/04 08:53:40;;;;;;;3.50;2.20;;;19.10;64.80;;;;;;5008372;28;20477;-50
2023/10/04 08:56:13;;;;;;;2.60;1.60;;;19.20;64.70;;;;;;4991954;28;20447;-50
2023/10/04 08:58:43;;;;;;;4.20;1.30;;;19.10;65.20;;;;;;5007046;28;20472;-50
2023/10/04 09:01:13;;;;;;;2.90;1.70;;;19.10;65.30;;;;;;5006656;28;21012;-51
2023/10/04 09:03:44;;;;;;;2.00;1.30;;;19.10;65.50;;;;;;5007179;28;20496;-51
2023/10/04 09:06:14;;;;;;;1.97;1.07;;;19.10;65.60;;;;;;5004487;28;20444;-51
2023/10/04 09:08:44;;;;;;;3.30;1.50;;;19.00;66.90;;;;;;5012109;28;20471;-51
2023/10/04 09:11:12;;;;;;;3.20;1.80;;;19.00;65.70;;;;;;5010729;28;20499;-50
2023/10/04 09:13:47;;;;;;;2.53;1.40;;;19.00;65.60;;;;;;5009804;28;20472;-50
2023/10/04 09:16:19;;;;;;;2.20;1.30;;;19.00;65.70;;;;;;5005821;28;20439;-51
2023/10/04 09:18:49;;;;;;;2.60;1.23;;;19.00;65.70;;;;;;5009341;28;20468;-51
2023/10/04 09:21:17;;;;;;;2.50;1.80;;;19.00;65.70;;;;;;5007420;28;20444;-50
2023/10/04 09:23:46;;;;;;;4.63;2.17;;;19.00;65.70;;;;;;5010582;28;20557;-51
2023/10/04 09:26:18;;;;;;;2.90;1.20;;;19.00;65.80;;;;;;5010054;28;20425;-53
2023/10/04 09:28:49;;;;;;;5.17;2.10;;;18.90;65.70;;;;;;5008925;28;20479;-51
2023/10/04 09:31:19;;;;;;;1.93;1.20;;;19.00;65.70;;;;;;5010699;28;20455;-51
2023/10/04 09:33:49;;;;;;;5.17;1.70;;;18.90;65.70;;;;;;5012026;28;20838;-52
2023/10/04 09:36:32;;;;;;;2.80;1.20;;;19.00;65.90;;;;;;5004302;28;20531;-50
2023/10/04 09:39:09;;;;;;;2.67;1.73;;;19.00;65.90;;;;;;5006168;28;20568;-52
2023/10/04 09:41:41;;;;;;;1.80;1.10;;;18.90;65.80;;;;;;5006240;28;20421;-50
2023/10/04 09:44:20;;;;;;;2.83;1.47;;;18.90;65.90;;;;;;5004628;28;20480;-52
2023/10/04 09:46:54;;;;;;;2.50;1.40;;;18.90;66.00;;;;;;5006306;28;20451;-51
2023/10/04 09:49:25;;;;;;;2.17;1.40;;;18.90;65.90;;;;;;5006950;28;20474;-50
2023/10/04 09:51:55;;;;;;;3.33;1.70;;;18.90;65.90;;;;;;5004596;28;20853;-52
2023/10/04 09:54:24;;;;;;;2.30;1.43;;;18.90;66.00;;;;;;5008391;28;20471;-51
2023/10/04 09:56:54;;;;;;;2.80;1.03;;;18.90;65.90;;;;;;5011677;28;20448;-51
2023/10/04 09:59:24;;;;;;;2.40;1.87;;;18.90;65.90;;;;;;5004730;28;20472;-51
2023/10/04 10:01:54;;;;;;;2.87;1.63;;;18.90;65.90;;;;;;5007145;28;20441;-50
2023/10/04 10:04:28;;;;;;;3.37;1.43;;;18.90;66.10;;;;;;5005699;28;20465;-51
2023/10/04 10:07:10;;;;;;;3.53;1.57;;;18.90;65.80;;;;;;5003514;28;20534;-50
2023/10/04 10:09:48;;;;;;;2.83;1.50;;;18.90;66.00;;;;;;5007071;28;20484;-50
2023/10/04 10:12:29;;;;;;;2.73;1.40;;;18.90;66.10;;;;;;5005314;28;20503;-50
2023/10/04 10:15:00;;;;;;;2.17;1.33;;;18.80;66.00;;;;;;5007825;28;20471;-52
2023/10/04 10:17:30;;;;;;;2.60;1.73;;;18.90;66.00;;;;;;4999041;28;20460;-49
2023/10/04 10:20:01;;;;;;;2.53;1.63;;;18.90;66.00;;;;;;5011285;28;20445;-49
2023/10/04 10:22:29;;;;;;;3.17;1.50;;;18.90;66.00;;;;;;5008169;28;20448;-52
2023/10/04 10:25:19;;;;;;;2.77;1.57;;;18.80;66.00;;;;;;5009379;28;20452;-51
2023/10/04 10:27:47;;;;;;;1.90;0.90;;;18.90;66.10;;;;;;5007345;28;20457;-50
2023/10/04 10:30:18;;;;;;;1.67;1.43;;;18.80;66.00;;;;;;5011449;28;20452;-52
2023/10/04 10:32:53;;;;;;;2.80;1.20;;;18.80;66.00;;;;;;5003165;28;20496;-51
2023/10/04 10:35:59;;;;;;;2.90;1.63;;;18.80;66.10;;;;;;5005927;28;20716;-50
2023/10/04 10:38:48;;;;;;;3.30;1.50;;;18.80;66.10;;;;;;5011295;28;20461;-50
2023/10/04 10:42:03;;;;;;;2.80;1.40;;;18.80;66.00;;;;;;5002136;28;21001;-52
2023/10/04 10:44:33;;;;;;;2.60;1.43;;;18.80;66.00;;;;;;5004222;28;20479;-49
2023/10/04 10:47:08;;;;;;;3.47;1.90;;;18.80;66.10;;;;;;5006035;28;20942;-52
2023/10/04 10:49:59;;;;;;;3.80;1.60;;;18.80;66.00;;;;;;5004500;28;20493;-52
2023/10/04 10:52:33;;;;;;;2.20;1.50;;;18.80;66.20;;;;;;5001112;28;20452;-50
2023/10/04 10:55:05;;;;;;;2.33;1.43;;;18.80;66.10;;;;;;5005817;28;20469;-52
2023/10/04 10:57:36;;;;;;;4.57;2.30;;;18.80;66.00;;;;;;5007066;28;20441;-50
2023/10/04 11:00:13;;;;;;;3.57;1.87;;;18.80;65.10;;;;;;5005596;28;20198;-52
2023/10/04 11:02:41;;;;;;;4.23;1.80;;;18.80;65.70;;;;;;5005743;28;20874;-51
2023/10/04 11:05:12;;;;;;;4.20;2.20;;;18.80;65.70;;;;;;5004408;28;20465;-49
2023/10/04 11:07:43;;;;;;;3.03;1.70;;;18.80;65.40;;;;;;4995677;28;20456;-50
2023/10/04 11:10:15;;;;;;;4.60;1.83;;;18.80;65.70;;;;;;5005716;28;20499;-51
2023/10/04 11:12:46;;;;;;;2.90;1.90;;;18.80;65.70;;;;;;5004469;28;20461;-52
2023/10/04 11:15:17;;;;;;;5.20;1.80;;;18.80;65.80;;;;;;5004073;28;20531;-53
2023/10/04 11:17:47;;;;;;;6.03;1.97;;;18.80;65.60;;;;;;5006853;28;20468;-50
2023/10/04 11:20:17;;;;;;;4.27;2.03;;;18.80;65.80;;;;;;5005761;28;20444;-50
2023/10/04 11:22:51;;;;;;;5.87;1.83;;;18.80;65.70;;;;;;5010793;28;21204;-50
2023/10/04 11:25:19;;;;;;;7.30;2.60;;;18.80;64.90;;;;;;5012147;28;20450;-51
2023/10/04 11:27:51;;;;;;;5.50;2.20;;;18.80;65.50;;;;;;5009286;28;20473;-51
2023/10/04 11:30:22;;;;;;;4.93;1.93;;;18.80;65.40;;;;;;5010860;28;21186;-52
2023/10/04 11:32:52;;;;;;;2.20;1.43;;;18.80;65.50;;;;;;4993791;28;20546;-52
2023/10/04 11:35:21;;;;;;;4.87;1.73;;;18.80;65.70;;;;;;4998425;28;20493;-52
2023/10/04 11:37:52;;;;;;;7.70;2.33;;;18.80;65.70;;;;;;5010981;28;20472;-52
2023/10/04 11:40:26;;;;;;;3.10;1.67;;;18.80;65.80;;;;;;5013340;28;20444;-51
2023/10/04 11:43:00;;;;;;;3.60;2.00;;;18.80;65.80;;;;;;5009914;28;20510;-52
2023/10/04 11:45:29;;;;;;;2.90;1.97;;;18.70;65.70;;;;;;5010378;28;20958;-52
2023/10/04 11:47:59;;;;;;;3.03;1.70;;;18.80;65.90;;;;;;5010600;28;20465;-51
2023/10/04 11:50:46;;;;;;;5.57;1.93;;;18.80;65.80;;;;;;5012229;28;20472;-52
2023/10/04 11:53:30;;;;;;;2.83;1.40;;;18.80;65.90;;;;;;5012496;28;20479;-51
2023/10/04 11:55:59;;;;;;;15.13;2.40;;;18.80;65.90;;;;;;4997214;28;20910;-51
2023/10/04 11:58:30;;;;;;;4.23;2.13;;;18.70;65.80;;;;;;5009699;28;20813;-51
2023/10/04 12:01:06;;;;;;;2.60;1.80;;;18.80;66.00;;;;;;5010553;28;20444;-51
2023/10/04 12:03:37;;;;;;;3.83;2.10;;;18.80;65.80;;;;;;5016708;28;20982;-50
2023/10/04 12:06:06;;;;;;;6.33;2.20;;;18.70;65.80;;;;;;5011249;28;20448;-51
2023/10/04 12:08:39;;;;;;;5.70;2.93;;;18.80;65.90;;;;;;4992719;28;20469;-52
2023/10/04 12:11:13;;;;;;;4.77;2.60;;;18.80;65.80;;;;;;5015484;28;20440;-52
2023/10/04 12:13:42;;;;;;;4.10;2.10;;;18.70;65.90;;;;;;5015577;28;20483;-52
2023/10/04 12:16:10;;;;;;;4.23;1.83;;;18.80;66.10;;;;;;5008874;28;20488;-51
2023/10/04 12:18:42;;;;;;;3.97;1.80;;;18.70;66.00;;;;;;5009591;28;20558;-51
2023/10/04 12:21:11;;;;;;;3.33;1.97;;;18.80;65.70;;;;;;5006588;28;20508;-52
2023/10/04 12:23:40;;;;;;;4.20;2.00;;;18.80;65.90;;;;;;5011301;28;20481;-50
2023/10/04 12:26:08;;;;;;;3.90;2.10;;;18.70;65.90;;;;;;5011472;28;20880;-51
2023/10/04 12:28:37;;;;;;;4.10;2.10;;;18.80;65.90;;;;;;5013358;28;20567;-51
2023/10/04 12:31:07;;;;;;;3.37;2.20;;;18.70;65.90;;;;;;4992983;28;21136;-51
2023/10/04 12:33:38;;;;;;;3.20;2.43;;;18.80;65.90;;;;;;4992097;28;20476;-50
2023/10/04 12:36:07;;;;;;;4.70;1.53;;;18.80;66.10;;;;;;5005127;28;20462;-51
2023/10/04 12:38:36;;;;;;;3.70;1.67;;;18.70;66.00;;;;;;5009453;28;20453;-50
2023/10/04 12:41:06;;;;;;;3.50;1.83;;;18.80;65.80;;;;;;5011990;28;20503;-50
2023/10/04 12:43:35;;;;;;;3.73;2.30;;;18.70;65.90;;;;;;5007216;28;20523;-50
2023/10/04 12:46:06;;;;;;;3.77;1.80;;;18.70;65.90;;;;;;5006665;28;20495;-50
2023/10/04 12:48:35;;;;;;;3.63;2.23;;;18.80;66.00;;;;;;5009740;28;20469;-50
2023/10/04 12:51:03;;;;;;;4.43;2.23;;;18.70;65.90;;;;;;5007423;28;20450;-50
2023/10/04 12:53:31;;;;;;;3.93;1.80;;;18.80;65.90;;;;;;5006573;28;20475;-49
2023/10/04 12:56:01;;;;;;;3.13;2.30;;;18.70;66.00;;;;;;5011700;28;20466;-52
2023/10/04 12:58:33;;;;;;;4.43;2.03;;;18.80;65.80;;;;;;5008707;28;20461;-50
2023/10/04 13:01:05;;;;;;;3.90;2.03;;;18.70;65.60;;;;;;5007995;28;20533;-51
2023/10/04 13:03:33;;;;;;;3.93;2.20;;;18.70;67.20;;;;;;5006825;28;20993;-52
2023/10/04 13:06:03;;;;;;;5.20;2.00;;;18.70;65.70;;;;;;5009264;28;20442;-51